Time;durP1;ratioP1;P1;durP2;ratioP2;P2;SDS_P1;SDS_P2;PMS_P1;PMS_P2;Temp;Humidity;BMP_temperature;BMP_pressure;BME280_temperature;BME280_humidity;BME280_pressure;Samples;Min_cycle;Max_cycle;Signal;HPM_P1;HPM_P2
2021/04/24 00:00:51;;;;;;;30.88;15.43;;;154.50;1945.60;;;;;;5071607;28;20178;-62
2021/04/24 00:03:17;;;;;;;20.52;13.43;;;179.20;1920.00;;;;;;5071849;28;20036;-63
2021/04/24 00:05:44;;;;;;;25.13;14.65;;;179.30;1894.40;;;;;;5071695;28;20112;-58
2021/04/24 00:08:12;;;;;;;23.80;14.68;;;179.30;1894.40;;;;;;5071471;28;20381;-58
2021/04/24 00:10:40;;;;;;;26.38;14.45;;;179.30;1894.40;;;;;;5071223;28;20474;-58
2021/04/24 00:13:07;;;;;;;26.38;10.68;;;179.20;1945.60;;;;;;5071545;28;20064;-59
2021/04/24 00:15:34;;;;;;;18.67;9.30;;;179.20;1920.00;;;;;;5071766;28;20064;-58
2021/04/24 00:18:00;;;;;;;13.77;7.28;;;154.50;1945.60;;;;;;5071509;28;20028;-59
2021/04/24 00:20:26;;;;;;;14.43;7.80;;;179.20;1920.00;;;;;;5071339;28;20043;-56
2021/04/24 00:22:52;;;;;;;15.02;7.93;;;154.50;1945.60;;;;;;5071348;28;20116;-64
2021/04/24 00:25:18;;;;;;;13.73;8.93;;;154.50;1945.60;;;;;;5071107;28;20036;-61
2021/04/24 00:27:44;;;;;;;13.63;8.65;;;154.50;1920.00;;;;;;5071166;28;20437;-63
2021/04/24 00:30:13;;;;;;;14.35;8.18;;;154.50;1945.60;;;;;;5071210;28;20060;-57
2021/04/24 00:32:40;;;;;;;14.35;7.22;;;154.50;1945.60;;;;;;5071066;28;20077;-59
2021/04/24 00:35:07;;;;;;;14.40;7.28;;;154.40;1945.60;;;;;;5071280;28;20036;-60
2021/04/24 00:37:33;;;;;;;13.38;7.10;;;154.40;1945.60;;;;;;5071056;28;20013;-60
2021/04/24 00:39:59;;;;;;;14.60;8.32;;;154.40;1945.60;;;;;;5070795;28;20028;-57
2021/04/24 00:42:24;;;;;;;17.90;9.63;;;154.50;1920.00;;;;;;5070819;28;20032;-59
2021/04/24 00:44:53;;;;;;;16.15;8.25;;;154.50;1920.00;;;;;;5069829;28;20048;-56
2021/04/24 00:47:20;;;;;;;23.90;13.10;;;154.50;1920.00;;;;;;5071059;28;20056;-58
2021/04/24 00:49:47;;;;;;;24.08;13.93;;;154.40;1945.60;;;;;;5070854;28;20070;-57
2021/04/24 00:52:14;;;;;;;24.55;13.07;;;154.40;1945.60;;;;;;5071001;28;20040;-63
2021/04/24 00:54:40;;;;;;;15.70;9.52;;;154.40;1945.60;;;;;;5070722;28;20024;-63
2021/04/24 00:57:07;;;;;;;18.30;11.10;;;154.50;1920.00;;;;;;5070518;28;20093;-56
2021/04/24 00:59:35;;;;;;;18.67;8.70;;;154.40;1945.60;;;;;;5070671;28;20057;-60
2021/04/24 01:02:02;;;;;;;19.17;9.68;;;154.40;1945.60;;;;;;5070655;28;20117;-56
2021/04/24 01:04:27;;;;;;;19.80;10.80;;;154.40;1945.60;;;;;;5070647;28;20029;-57
2021/04/24 01:06:53;;;;;;;16.90;10.00;;;154.30;1945.60;;;;;;5070507;28;20459;-56
2021/04/24 01:09:19;;;;;;;25.08;15.57;;;154.30;1945.60;;;;;;5070316;28;20028;-57
2021/04/24 01:11:45;;;;;;;21.45;10.60;;;154.30;1945.60;;;;;;5070258;28;20113;-58
2021/04/24 01:14:11;;;;;;;13.13;8.40;;;154.20;1945.60;;;;;;5070234;28;20095;-59
2021/04/24 01:16:37;;;;;;;16.00;8.90;;;154.20;1971.20;;;;;;5070458;28;20044;-58
2021/04/24 01:19:03;;;;;;;16.00;9.65;;;154.10;1971.20;;;;;;5070542;28;20074;-57
2021/04/24 01:21:29;;;;;;;16.73;8.30;;;154.10;1971.20;;;;;;5070202;28;20086;-60
2021/04/24 01:23:56;;;;;;;12.85;7.95;;;154.00;1996.80;;;;;;5070349;28;20082;-60
2021/04/24 01:26:22;;;;;;;20.90;9.32;;;154.10;1971.20;;;;;;5069989;28;20024;-57
2021/04/24 01:28:48;;;;;;;16.58;8.63;;;154.00;1996.80;;;;;;5070078;28;20039;-58
2021/04/24 01:31:15;;;;;;;15.48;8.20;;;154.00;2022.40;;;;;;5070502;28;20098;-57
2021/04/24 01:33:41;;;;;;;16.95;9.20;;;153.90;2022.40;;;;;;5070104;28;20082;-59
2021/04/24 01:36:06;;;;;;;15.77;7.38;;;154.00;1996.80;;;;;;5070294;28;20041;-56
2021/04/24 01:38:32;;;;;;;17.05;10.52;;;153.90;2022.40;;;;;;5068778;28;20036;-56
2021/04/24 01:40:59;;;;;;;14.18;8.63;;;153.80;2022.40;;;;;;5069851;28;20029;-57
2021/04/24 01:43:25;;;;;;;18.33;9.15;;;153.70;2073.60;;;;;;5070219;28;20494;-57
2021/04/24 01:45:51;;;;;;;16.25;8.35;;;153.60;2073.60;;;;;;5069853;28;20072;-62
2021/04/24 01:48:16;;;;;;;14.38;8.05;;;153.60;2073.60;;;;;;5070214;28;20032;-57
2021/04/24 01:50:45;;;;;;;15.15;8.57;;;153.60;2073.60;;;;;;5069767;28;20387;-57
2021/04/24 01:53:20;;;;;;;14.60;7.57;;;153.60;2048.00;;;;;;5069817;28;20020;-58
2021/04/24 01:55:47;;;;;;;14.77;8.18;;;128.80;2099.20;;;;;;5072319;28;20035;-62
2021/04/24 01:58:17;;;;;;;14.18;7.72;;;128.80;2099.20;;;;;;5074471;28;20025;-63
2021/04/24 02:00:47;;;;;;;17.17;9.75;;;128.90;2099.20;;;;;;5074119;28;20539;-56
2021/04/24 02:03:14;;;;;;;18.52;8.27;;;128.70;2124.80;;;;;;5074210;28;20062;-56
2021/04/24 02:05:42;;;;;;;18.15;8.55;;;128.70;2124.80;;;;;;5073952;28;20039;-60
2021/04/24 02:08:11;;;;;;;15.63;9.82;;;128.50;2150.40;;;;;;5073723;28;20028;-62
2021/04/24 02:10:38;;;;;;;16.70;8.05;;;128.70;2124.80;;;;;;5073415;28;20072;-57
2021/04/24 02:13:11;;;;;;;17.27;9.43;;;128.60;2150.40;;;;;;5072348;28;20154;-58
2021/04/24 02:15:37;;;;;;;17.65;8.05;;;128.40;2176.00;;;;;;5073578;28;20475;-57
2021/04/24 02:18:04;;;;;;;18.23;8.82;;;128.40;2176.00;;;;;;5073781;28;20039;-57
2021/04/24 02:20:31;;;;;;;16.55;9.60;;;128.50;2150.40;;;;;;5073565;28;20024;-57
2021/04/24 02:22:56;;;;;;;16.02;8.57;;;128.40;2176.00;;;;;;5073781;28;20283;-56
2021/04/24 02:25:23;;;;;;;12.98;6.88;;;128.30;2176.00;;;;;;5073721;28;20127;-57
2021/04/24 02:27:49;;;;;;;17.00;8.52;;;128.50;2150.40;;;;;;5073311;28;20020;-55
2021/04/24 02:30:18;;;;;;;26.73;9.00;;;128.60;2124.80;;;;;;5073507;28;20355;-57
2021/04/24 02:32:44;;;;;;;17.52;9.25;;;128.70;2099.20;;;;;;5073629;28;20070;-60
2021/04/24 02:35:13;;;;;;;20.20;9.30;;;128.80;2099.20;;;;;;5073328;28;20035;-57
2021/04/24 02:37:39;;;;;;;22.27;13.25;;;128.80;2073.60;;;;;;5073282;28;20067;-57
2021/04/24 02:40:09;;;;;;;19.92;9.77;;;128.90;2073.60;;;;;;5073230;28;20027;-62
2021/04/24 02:42:34;;;;;;;21.10;10.52;;;128.80;2099.20;;;;;;5073244;28;20550;-59
2021/04/24 02:45:05;;;;;;;19.45;10.70;;;128.70;2099.20;;;;;;5073077;28;20171;-57
2021/04/24 02:47:33;;;;;;;19.90;10.23;;;128.70;2099.20;;;;;;5073084;28;20036;-61
2021/04/24 02:50:00;;;;;;;16.02;8.85;;;128.60;2124.80;;;;;;5072990;28;20017;-60
2021/04/24 02:52:27;;;;;;;15.98;8.85;;;128.50;2124.80;;;;;;5073159;28;20497;-58
2021/04/24 02:54:53;;;;;;;14.68;8.10;;;128.40;2176.00;;;;;;5073095;28;20108;-56
2021/04/24 02:57:19;;;;;;;15.50;8.85;;;128.20;2201.60;;;;;;5072634;28;20025;-63
2021/04/24 02:59:45;;;;;;;33.92;19.85;;;128.20;2176.00;;;;;;5072956;28;20078;-57
2021/04/24 03:02:11;;;;;;;18.95;10.93;;;128.30;2150.40;;;;;;5072810;28;20024;-60
2021/04/24 03:04:37;;;;;;;18.13;9.50;;;128.30;2176.00;;;;;;5073006;28;20040;-57
2021/04/24 03:07:02;;;;;;;24.15;8.23;;;128.20;2176.00;;;;;;5072092;28;20432;-57
2021/04/24 03:09:28;;;;;;;18.65;10.73;;;128.30;2176.00;;;;;;5072681;28;20021;-58
2021/04/24 03:11:54;;;;;;;14.27;8.77;;;128.30;2176.00;;;;;;5072812;28;20178;-57
2021/04/24 03:14:19;;;;;;;12.90;8.70;;;128.40;2176.00;;;;;;5072508;28;20036;-56
2021/04/24 03:16:45;;;;;;;18.98;10.75;;;128.40;2150.40;;;;;;5072792;28;20479;-58
2021/04/24 03:19:11;;;;;;;15.75;8.50;;;128.40;2150.40;;;;;;5072399;28;20103;-56
2021/04/24 03:21:38;;;;;;;20.58;8.98;;;128.50;2124.80;;;;;;5072482;28;20035;-61
2021/04/24 03:24:04;;;;;;;16.50;9.77;;;128.50;2124.80;;;;;;5072535;28;20029;-61
2021/04/24 03:26:31;;;;;;;20.20;9.27;;;128.50;2124.80;;;;;;5072375;28;20039;-56
2021/04/24 03:28:56;;;;;;;19.77;10.15;;;128.50;2124.80;;;;;;5072736;28;20043;-57
2021/04/24 03:31:22;;;;;;;17.70;9.07;;;128.50;2150.40;;;;;;5072425;28;20049;-57
2021/04/24 03:33:48;;;;;;;18.02;9.20;;;128.50;2150.40;;;;;;5072385;28;20046;-56
2021/04/24 03:36:14;;;;;;;18.05;10.75;;;128.50;2124.80;;;;;;5072492;28;20028;-62
2021/04/24 03:38:40;;;;;;;19.75;11.70;;;128.50;2124.80;;;;;;5071819;28;20063;-60
2021/04/24 03:41:07;;;;;;;19.50;13.15;;;128.50;2124.80;;;;;;5072181;28;20072;-63
2021/04/24 03:43:33;;;;;;;21.40;12.27;;;128.50;2150.40;;;;;;5072057;28;20035;-59
2021/04/24 03:45:58;;;;;;;15.90;10.40;;;128.50;2099.20;;;;;;5071975;28;20056;-60
2021/04/24 03:48:24;;;;;;;14.88;8.63;;;128.50;2124.80;;;;;;5072194;28;20103;-61
2021/04/24 03:50:51;;;;;;;17.60;9.18;;;128.50;2124.80;;;;;;5071783;28;20381;-63
2021/04/24 03:53:16;;;;;;;20.63;9.43;;;128.50;2124.80;;;;;;5072035;28;20021;-62
2021/04/24 03:55:42;;;;;;;20.52;9.05;;;128.60;2124.80;;;;;;5070749;28;20082;-60
2021/04/24 03:58:08;;;;;;;14.18;8.55;;;128.60;2124.80;;;;;;5071943;28;20017;-59
2021/04/24 04:00:34;;;;;;;16.65;9.20;;;128.70;2099.20;;;;;;5072099;28;20024;-57
2021/04/24 04:03:02;;;;;;;17.63;9.25;;;128.70;2099.20;;;;;;5071661;28;20531;-57
2021/04/24 04:05:31;;;;;;;24.58;17.15;;;128.80;2099.20;;;;;;5071535;28;20025;-58
2021/04/24 04:08:00;;;;;;;19.17;10.23;;;128.80;2048.00;;;;;;5071676;28;20021;-62
2021/04/24 04:10:28;;;;;;;16.05;8.30;;;128.90;2073.60;;;;;;5071439;28;20123;-56
2021/04/24 04:12:55;;;;;;;17.92;8.23;;;128.90;2073.60;;;;;;5071704;28;20123;-56
2021/04/24 04:15:23;;;;;;;16.30;9.35;;;153.60;2048.00;;;;;;5071443;28;20028;-58
2021/04/24 04:18:15;;;;;;;19.75;9.75;;;153.60;2048.00;;;;;;5071309;28;20025;-57
2021/04/24 04:20:44;;;;;;;23.92;12.18;;;153.80;2022.40;;;;;;5071196;28;20043;-57
2021/04/24 04:23:11;;;;;;;19.17;9.52;;;153.90;2022.40;;;;;;5071083;28;20509;-57
2021/04/24 04:25:37;;;;;;;18.52;10.13;;;153.90;2022.40;;;;;;5071367;28;20099;-57
2021/04/24 04:28:04;;;;;;;15.68;9.65;;;154.10;1996.80;;;;;;5071217;28;20043;-57
2021/04/24 04:30:33;;;;;;;15.43;9.32;;;154.10;1996.80;;;;;;5070979;28;20103;-63
2021/04/24 04:33:00;;;;;;;19.05;10.10;;;154.20;1996.80;;;;;;5070955;28;20486;-60
2021/04/24 04:35:26;;;;;;;24.65;11.10;;;154.20;1996.80;;;;;;5071067;28;20550;-59
2021/04/24 04:37:53;;;;;;;15.55;9.52;;;154.10;2022.40;;;;;;5070876;28;20021;-57
2021/04/24 04:40:20;;;;;;;17.48;9.63;;;180.10;1843.20;;;;;;5070809;28;20378;-57
2021/04/24 04:42:46;;;;;;;14.98;10.57;;;231.10;1587.20;;;;;;5070770;28;20112;-58
2021/04/24 04:45:14;;;;;;;18.33;10.93;;;282.40;1433.60;;;;;;5070557;28;20490;-65
2021/04/24 04:47:40;;;;;;;19.88;10.45;;;358.40;1228.80;;;;;;5070705;28;20024;-65
2021/04/24 04:50:08;;;;;;;16.75;10.23;;;384.50;1126.40;;;;;;5070863;28;20032;-58
2021/04/24 04:52:35;;;;;;;19.02;10.88;;;409.90;1075.20;;;;;;5070869;28;20028;-60
2021/04/24 04:55:02;;;;;;;18.67;11.35;;;435.60;998.40;;;;;;5076376;28;20024;-61
2021/04/24 04:57:27;;;;;;;16.88;10.18;;;460.90;972.80;;;;;;5081234;28;20023;-59
2021/04/24 04:59:53;;;;;;;16.67;10.77;;;461.70;921.60;;;;;;5079853;28;20462;-63
2021/04/24 05:02:18;;;;;;;19.08;10.82;;;486.70;896.00;;;;;;5090678;28;20020;-60
2021/04/24 05:04:45;;;;;;;19.83;11.85;;;487.00;844.80;;;;;;5090919;28;20107;-58
2021/04/24 05:07:11;;;;;;;17.95;10.77;;;512.80;793.60;;;;;;5090859;28;20107;-57
2021/04/24 05:09:37;;;;;;;16.88;10.60;;;537.80;793.60;;;;;;5090576;28;20127;-62
2021/04/24 05:12:03;;;;;;;15.70;10.77;;;538.10;768.00;;;;;;5090639;28;20051;-59
2021/04/24 05:14:29;;;;;;;20.40;11.68;;;538.50;742.40;;;;;;5075531;28;20370;-58
2021/04/24 05:16:54;;;;;;;16.67;11.35;;;563.20;768.00;;;;;;5075542;28;20033;-62
2021/04/24 05:19:20;;;;;;;22.27;12.85;;;538.20;768.00;;;;;;5070109;28;20082;-63
2021/04/24 05:21:46;;;;;;;17.02;11.75;;;564.10;742.40;;;;;;5070344;28;20032;-68
2021/04/24 05:24:13;;;;;;;16.63;14.77;;;589.30;716.80;;;;;;5070076;28;20078;-68
2021/04/24 05:26:39;;;;;;;18.65;13.45;;;614.50;691.20;;;;;;5070019;28;20082;-68
2021/04/24 05:29:05;;;;;;;17.35;15.52;;;615.20;640.00;;;;;;5069970;28;20024;-66
2021/04/24 05:31:31;;;;;;;19.73;12.48;;;640.60;614.40;;;;;;5069744;28;20047;-66
2021/04/24 05:33:57;;;;;;;14.18;11.93;;;666.00;614.40;;;;;;5070289;28;20016;-66
2021/04/24 05:36:24;;;;;;;16.90;12.05;;;691.60;563.20;;;;;;5070096;28;20032;-66
2021/04/24 05:38:51;;;;;;;17.10;12.73;;;692.10;537.60;;;;;;5070046;28;20504;-66
2021/04/24 05:41:21;;;;;;;16.38;13.60;;;717.10;537.60;;;;;;5070575;28;20036;-67
2021/04/24 05:43:52;;;;;;;17.65;14.48;;;742.40;537.60;;;;;;5070388;28;20378;-67
2021/04/24 05:46:19;;;;;;;18.17;15.00;;;717.30;537.60;;;;;;5070089;28;20068;-68
2021/04/24 05:48:44;;;;;;;17.17;13.75;;;717.30;537.60;;;;;;5070568;28;20020;-67
2021/04/24 05:51:11;;;;;;;19.27;16.27;;;717.50;537.60;;;;;;5069813;28;20047;-67
2021/04/24 05:53:38;;;;;;;17.02;15.00;;;717.30;537.60;;;;;;5069810;28;20025;-67
2021/04/24 05:56:04;;;;;;;15.32;13.73;;;717.40;537.60;;;;;;5070098;28;20024;-67
2021/04/24 05:58:30;;;;;;;21.05;16.58;;;742.90;537.60;;;;;;5070056;28;20029;-67
2021/04/24 06:00:56;;;;;;;19.88;17.42;;;743.10;512.00;;;;;;5070259;28;20454;-67
2021/04/24 06:03:21;;;;;;;22.27;17.10;;;768.60;486.40;;;;;;5069739;28;20044;-66
2021/04/24 06:05:47;;;;;;;18.40;16.45;;;794.10;486.40;;;;;;5068674;28;20052;-67
2021/04/24 06:08:13;;;;;;;19.83;17.77;;;794.50;460.80;;;;;;5070025;28;20055;-67
2021/04/24 06:10:39;;;;;;;21.33;19.13;;;794.20;486.40;;;;;;5069486;28;20040;-68
2021/04/24 06:13:05;;;;;;;25.77;21.02;;;794.00;486.40;;;;;;5069633;28;20033;-68
2021/04/24 06:15:31;;;;;;;21.80;19.63;;;819.80;435.20;;;;;;5069795;28;20082;-66
2021/04/24 06:17:56;;;;;;;22.17;20.00;;;845.40;435.20;;;;;;5069929;28;20355;-67
2021/04/24 06:20:22;;;;;;;22.15;19.98;;;845.70;409.60;;;;;;5069497;28;20520;-68
2021/04/24 06:22:48;;;;;;;26.00;23.45;;;870.40;409.60;;;;;;5069467;28;20032;-71
2021/04/24 06:25:17;;;;;;;45.45;38.63;;;845.60;409.60;;;;;;5070197;28;20036;-67
2021/04/24 06:27:44;;;;;;;28.88;25.80;;;870.80;409.60;;;;;;5071413;28;20032;-68
2021/04/24 06:30:13;;;;;;;26.63;23.88;;;871.00;384.00;;;;;;5071146;28;20018;-68
2021/04/24 06:32:39;;;;;;;23.45;21.50;;;870.70;409.60;;;;;;5071002;28;20020;-68
2021/04/24 06:35:07;;;;;;;26.35;23.60;;;896.00;384.00;;;;;;5071823;28;20108;-68
2021/04/24 06:37:34;;;;;;;31.98;29.10;;;870.90;409.60;;;;;;5071879;28;20095;-70
2021/04/24 06:40:00;;;;;;;26.83;24.48;;;871.20;384.00;;;;;;5070221;28;20469;-67
2021/04/24 06:42:25;;;;;;;39.00;35.25;;;921.90;358.40;;;;;;5071058;28;20111;-68
2021/04/24 06:44:51;;;;;;;33.58;27.33;;;921.60;384.00;;;;;;5076656;28;20131;-68
2021/04/24 06:47:17;;;;;;;30.80;27.80;;;896.10;384.00;;;;;;5093514;28;20055;-67
2021/04/24 06:49:42;;;;;;;27.27;24.77;;;870.50;435.20;;;;;;5093367;28;20050;-69
2021/04/24 06:52:08;;;;;;;27.92;24.38;;;845.00;435.20;;;;;;5093156;28;20042;-70
2021/04/24 06:54:36;;;;;;;28.70;25.90;;;870.50;409.60;;;;;;5093372;28;20078;-70
2021/04/24 06:57:02;;;;;;;25.42;22.05;;;870.50;384.00;;;;;;5093280;28;20027;-69
2021/04/24 06:59:28;;;;;;;23.55;21.42;;;870.90;358.40;;;;;;5093001;28;20016;-70
2021/04/24 07:01:54;;;;;;;25.88;21.50;;;896.30;358.40;;;;;;5093317;28;20394;-69
2021/04/24 07:04:20;;;;;;;25.70;20.60;;;922.30;332.80;;;;;;5093019;28;20024;-70
2021/04/24 07:06:45;;;;;;;27.45;25.10;;;947.50;281.60;;;;;;5093100;28;20028;-69
2021/04/24 07:09:11;;;;;;;21.40;19.13;;;947.20;281.60;;;;;;5092777;28;20024;-69
2021/04/24 07:11:37;;;;;;;16.33;14.82;;;948.10;281.60;;;;;;5093089;28;20044;-70
2021/04/24 07:14:03;;;;;;;18.33;16.55;;;947.80;281.60;;;;;;5093141;28;20027;-69
2021/04/24 07:16:29;;;;;;;17.20;15.60;;;973.00;307.20;;;;;;5092735;28;20095;-69
2021/04/24 07:18:55;;;;;;;18.85;16.95;;;973.20;307.20;;;;;;5092850;28;20135;-69
2021/04/24 07:21:21;;;;;;;23.20;20.77;;;973.30;307.20;;;;;;5092705;28;20028;-69
2021/04/24 07:23:47;;;;;;;21.90;19.58;;;922.20;281.60;;;;;;5093039;28;20024;-69
2021/04/24 07:26:13;;;;;;;16.52;14.57;;;896.10;281.60;;;;;;5105455;28;20095;-69
2021/04/24 07:28:39;;;;;;;20.40;17.20;;;896.30;256.00;;;;;;5105106;28;20465;-70
2021/04/24 07:31:05;;;;;;;19.23;15.48;;;921.70;281.60;;;;;;5105104;28;20063;-69
2021/04/24 07:33:31;;;;;;;17.60;15.10;;;947.40;281.60;;;;;;5096752;28;20351;-69
2021/04/24 07:35:58;;;;;;;19.65;14.85;;;947.50;281.60;;;;;;5092488;28;20081;-70
2021/04/24 07:38:23;;;;;;;15.68;13.35;;;922.30;281.60;;;;;;5092521;28;20432;-69
2021/04/24 07:40:50;;;;;;;23.77;18.23;;;947.50;281.60;;;;;;5092650;28;20032;-69
2021/04/24 07:43:16;;;;;;;17.38;15.63;;;973.50;307.20;;;;;;5092386;28;20069;-69
2021/04/24 07:45:43;;;;;;;18.15;15.52;;;896.50;281.60;;;;;;5092126;28;20121;-68
2021/04/24 07:48:09;;;;;;;13.85;12.43;;;871.10;307.20;;;;;;5092118;28;20531;-69
2021/04/24 07:50:36;;;;;;;16.33;12.90;;;870.70;307.20;;;;;;5092292;28;20035;-68
2021/04/24 07:53:02;;;;;;;17.00;11.82;;;870.90;307.20;;;;;;5091814;28;20052;-68
2021/04/24 07:55:28;;;;;;;13.07;11.77;;;922.00;281.60;;;;;;5092403;28;20391;-69
2021/04/24 07:57:54;;;;;;;16.20;14.43;;;948.10;281.60;;;;;;5092179;28;20458;-68
2021/04/24 08:00:20;;;;;;;10.88;9.80;;;973.40;307.20;;;;;;5092087;28;20381;-69
2021/04/24 08:02:46;;;;;;;13.27;11.90;;;973.60;307.20;;;;;;5092223;28;20070;-69
2021/04/24 08:05:14;;;;;;;9.30;8.40;;;973.20;307.20;;;;;;5091706;28;20023;-69
2021/04/24 08:07:40;;;;;;;9.48;8.68;;;921.60;281.60;;;;;;5091586;28;20047;-69
2021/04/24 08:10:06;;;;;;;11.77;10.57;;;921.70;281.60;;;;;;5091837;28;20112;-68
2021/04/24 08:12:32;;;;;;;8.70;7.82;;;947.30;281.60;;;;;;5091821;28;20052;-70
2021/04/24 08:14:58;;;;;;;18.13;16.30;;;947.60;281.60;;;;;;5091849;28;20371;-70
2021/04/24 08:17:23;;;;;;;9.13;8.18;;;922.00;281.60;;;;;;5091662;28;20024;-69
2021/04/24 08:19:49;;;;;;;8.95;8.05;;;871.10;256.00;;;;;;5091628;28;20528;-69
2021/04/24 08:22:15;;;;;;;10.50;9.20;;;896.60;256.00;;;;;;5091612;28;20032;-69
2021/04/24 08:24:41;;;;;;;12.30;9.43;;;844.90;307.20;;;;;;5091407;28;20028;-69
2021/04/24 08:27:07;;;;;;;11.38;9.65;;;870.40;281.60;;;;;;5091551;28;20081;-69
2021/04/24 08:29:33;;;;;;;11.15;9.45;;;793.90;358.40;;;;;;5091050;28;20020;-68
2021/04/24 08:31:59;;;;;;;11.50;10.30;;;768.40;332.80;;;;;;5091481;28;20031;-68
2021/04/24 08:34:26;;;;;;;16.55;14.95;;;768.40;358.40;;;;;;5091254;28;20023;-68
2021/04/24 08:36:52;;;;;;;43.50;39.80;;;742.60;384.00;;;;;;5091152;28;20031;-69
2021/04/24 08:39:18;;;;;;;21.20;18.25;;;716.90;435.20;;;;;;5080603;28;20386;-65
2021/04/24 08:41:44;;;;;;;15.50;9.02;;;691.30;435.20;;;;;;5079419;28;20043;-65
2021/04/24 08:44:17;;;;;;;16.70;9.48;;;615.00;486.40;;;;;;5079146;28;20260;-70
2021/04/24 08:46:47;;;;;;;16.70;8.95;;;589.40;537.60;;;;;;5076361;28;20072;-66
2021/04/24 08:49:19;;;;;;;11.77;9.52;;;588.80;563.20;;;;;;5078795;28;20382;-66
2021/04/24 08:51:46;;;;;;;17.48;9.55;;;588.90;588.80;;;;;;5077148;28;20474;-70
2021/04/24 08:54:12;;;;;;;17.88;11.65;;;563.50;588.80;;;;;;5078809;28;20523;-67
2021/04/24 08:56:38;;;;;;;13.18;9.75;;;563.80;640.00;;;;;;5080619;28;20348;-67
2021/04/24 08:59:04;;;;;;;14.00;9.07;;;563.60;640.00;;;;;;5078952;28;20074;-66
2021/04/24 09:01:29;;;;;;;15.27;9.85;;;563.40;691.20;;;;;;5079023;28;20024;-67
2021/04/24 09:03:55;;;;;;;23.15;13.15;;;563.40;640.00;;;;;;5080215;28;20024;-68
2021/04/24 09:06:22;;;;;;;11.98;9.65;;;563.80;614.40;;;;;;5076873;28;20020;-69
2021/04/24 09:08:58;;;;;;;17.58;9.90;;;563.60;614.40;;;;;;5080157;28;20028;-66
2021/04/24 09:11:24;;;;;;;15.27;10.73;;;563.20;640.00;;;;;;5079561;28;20020;-71
2021/04/24 09:14:05;;;;;;;13.98;9.68;;;538.50;640.00;;;;;;5079286;28;20028;-63
2021/04/24 09:16:31;;;;;;;16.20;10.27;;;538.10;691.20;;;;;;5078722;28;20027;-67
2021/04/24 09:18:57;;;;;;;11.25;8.15;;;538.20;665.60;;;;;;5087262;28;20035;-65
2021/04/24 09:21:26;;;;;;;14.75;9.95;;;537.60;691.20;;;;;;5090412;28;20481;-66
2021/04/24 09:23:52;;;;;;;11.70;8.77;;;512.80;665.60;;;;;;5090340;28;20034;-64
2021/04/24 09:26:21;;;;;;;12.38;8.43;;;512.90;665.60;;;;;;5090491;28;20103;-65
2021/04/24 09:28:50;;;;;;;14.95;9.35;;;537.90;665.60;;;;;;5090710;28;20374;-66
2021/04/24 09:31:23;;;;;;;10.10;7.70;;;512.30;665.60;;;;;;5090629;28;20535;-66
2021/04/24 09:33:54;;;;;;;8.43;6.80;;;512.10;665.60;;;;;;5090356;28;20028;-65
2021/04/24 09:36:21;;;;;;;13.50;8.38;;;512.40;640.00;;;;;;5090269;28;20081;-64
2021/04/24 09:38:49;;;;;;;10.38;6.53;;;512.10;665.60;;;;;;5090547;28;20032;-64
2021/04/24 09:41:25;;;;;;;8.27;6.22;;;486.50;691.20;;;;;;5090335;28;20036;-67
2021/04/24 09:44:12;;;;;;;13.80;6.78;;;486.80;691.20;;;;;;5090091;28;20020;-66
2021/04/24 09:46:56;;;;;;;12.05;7.85;;;486.60;665.60;;;;;;5090123;28;20032;-65
2021/04/24 09:49:28;;;;;;;12.70;10.25;;;487.20;691.20;;;;;;5090084;28;20024;-66
2021/04/24 09:52:00;;;;;;;11.57;7.28;;;487.20;665.60;;;;;;5090337;28;20066;-65
2021/04/24 09:54:37;;;;;;;11.82;7.20;;;487.00;691.20;;;;;;5090322;28;20031;-66
2021/04/24 09:57:06;;;;;;;11.15;6.82;;;487.30;665.60;;;;;;5090254;28;20024;-65
2021/04/24 09:59:32;;;;;;;9.38;6.22;;;486.70;665.60;;;;;;5071168;28;20032;-65
2021/04/24 10:02:04;;;;;;;15.95;6.63;;;486.70;691.20;;;;;;5069700;28;20040;-66
2021/04/24 10:04:30;;;;;;;10.32;6.53;;;487.00;742.40;;;;;;5070031;28;20027;-66
2021/04/24 10:06:57;;;;;;;9.25;6.22;;;487.00;691.20;;;;;;5070001;28;20028;-65
2021/04/24 10:09:30;;;;;;;10.93;6.93;;;487.20;691.20;;;;;;5069530;28;20050;-64
2021/04/24 10:12:02;;;;;;;8.88;7.28;;;487.20;665.60;;;;;;5069972;28;20082;-65
2021/04/24 10:14:45;;;;;;;12.48;7.80;;;487.10;691.20;;;;;;5069676;28;20036;-65
2021/04/24 10:17:16;;;;;;;9.80;7.43;;;487.10;691.20;;;;;;5072495;28;20028;-65
2021/04/24 10:19:43;;;;;;;11.73;7.18;;;486.80;691.20;;;;;;5073405;28;20033;-63
2021/04/24 10:22:10;;;;;;;12.52;7.28;;;486.70;691.20;;;;;;5076457;28;20504;-64
2021/04/24 10:24:36;;;;;;;34.95;25.85;;;486.70;691.20;;;;;;5082823;28;20069;-64
2021/04/24 10:27:04;;;;;;;23.38;15.75;;;487.00;716.80;;;;;;5084124;28;20087;-64
2021/04/24 10:29:30;;;;;;;20.90;14.38;;;487.00;716.80;;;;;;5083135;28;20132;-64
2021/04/24 10:31:56;;;;;;;18.90;13.13;;;486.60;691.20;;;;;;5074625;28;20489;-66
2021/04/24 10:34:22;;;;;;;20.85;10.73;;;461.50;716.80;;;;;;5073438;28;20020;-66
2021/04/24 10:36:49;;;;;;;14.70;7.13;;;486.60;716.80;;;;;;5072946;28;20401;-66
2021/04/24 10:39:22;;;;;;;14.10;10.02;;;461.60;742.40;;;;;;5073478;28;20489;-63
2021/04/24 10:41:54;;;;;;;10.07;6.63;;;461.60;742.40;;;;;;5073366;28;20044;-65
2021/04/24 10:44:21;;;;;;;10.70;7.47;;;461.60;768.00;;;;;;5073120;28;20075;-64
2021/04/24 10:46:55;;;;;;;9.50;6.38;;;486.40;716.80;;;;;;5073073;28;20032;-63
2021/04/24 10:49:22;;;;;;;11.48;7.85;;;486.50;691.20;;;;;;5073020;28;20576;-64
2021/04/24 10:52:07;;;;;;;13.27;7.43;;;486.70;691.20;;;;;;5073136;28;20100;-66
2021/04/24 10:54:38;;;;;;;11.20;6.28;;;486.70;716.80;;;;;;5073104;28;20505;-66
2021/04/24 10:57:41;;;;;;;8.68;7.75;;;486.60;691.20;;;;;;5073148;28;20043;-64
2021/04/24 11:00:38;;;;;;;10.93;7.05;;;461.70;716.80;;;;;;5073087;28;20028;-64
2021/04/24 11:03:03;;;;;;;9.90;5.90;;;486.40;691.20;;;;;;5011249;28;20033;-64
2021/04/24 11:05:35;;;;;;;10.10;5.30;;;486.60;742.40;;;;;;5010982;28;20120;-64
2021/04/24 11:08:10;;;;;;;9.55;6.50;;;486.70;716.80;;;;;;5010986;28;20045;-64
2021/04/24 11:10:54;;;;;;;10.70;6.10;;;486.50;665.60;;;;;;5010985;28;20034;-64
2021/04/24 11:13:22;;;;;;;12.00;9.02;;;486.40;691.20;;;;;;5010779;28;20400;-64
2021/04/24 11:15:48;;;;;;;11.68;7.50;;;486.50;691.20;;;;;;5010899;28;20028;-66
2021/04/24 11:18:16;;;;;;;11.40;7.25;;;486.40;691.20;;;;;;5010745;28;20029;-66
2021/04/24 11:20:55;;;;;;;8.25;6.15;;;486.60;716.80;;;;;;5010469;28;20523;-66
2021/04/24 11:23:30;;;;;;;8.98;6.05;;;486.60;716.80;;;;;;5010502;28;20037;-66
2021/04/24 11:26:05;;;;;;;10.35;5.90;;;461.70;716.80;;;;;;5010669;28;20026;-64
2021/04/24 11:28:32;;;;;;;10.35;5.53;;;486.60;691.20;;;;;;5009820;28;20472;-66
2021/04/24 11:31:01;;;;;;;8.10;6.18;;;461.60;691.20;;;;;;5010514;28;20030;-65
2021/04/24 11:33:39;;;;;;;21.17;12.93;;;461.50;691.20;;;;;;5010414;28;20045;-63
2021/04/24 11:36:16;;;;;;;7.85;5.70;;;461.30;691.20;;;;;;5010513;28;20057;-64
2021/04/24 11:38:55;;;;;;;10.90;5.45;;;461.60;691.20;;;;;;5011670;28;20030;-66
2021/04/24 11:41:37;;;;;;;7.82;5.75;;;461.40;716.80;;;;;;5071922;28;20040;-65
2021/04/24 11:44:15;;;;;;;11.60;8.45;;;486.40;742.40;;;;;;5071912;28;20078;-64
2021/04/24 11:46:41;;;;;;;10.23;6.22;;;486.40;716.80;;;;;;5071839;28;20086;-64
2021/04/24 11:49:14;;;;;;;12.45;5.78;;;461.60;768.00;;;;;;5072198;28;20036;-64
2021/04/24 11:51:58;;;;;;;14.13;6.50;;;486.70;844.80;;;;;;5071805;28;20103;-64
2021/04/24 11:54:32;;;;;;;9.90;6.22;;;486.70;716.80;;;;;;5072070;28;20025;-67
2021/04/24 11:57:02;;;;;;;16.88;6.80;;;486.60;742.40;;;;;;5072021;28;20078;-64
2021/04/24 11:59:38;;;;;;;8.82;6.18;;;486.40;768.00;;;;;;5071723;28;20604;-65
2021/04/24 12:02:19;;;;;;;14.50;9.45;;;486.50;768.00;;;;;;5072088;28;20040;-68
2021/04/24 12:04:46;;;;;;;10.52;6.88;;;461.70;742.40;;;;;;5071815;28;20025;-67
2021/04/24 12:07:14;;;;;;;9.05;5.75;;;461.70;742.40;;;;;;5072071;28;20099;-64
2021/04/24 12:09:55;;;;;;;12.45;6.28;;;486.40;793.60;;;;;;5071427;28;20359;-66
2021/04/24 12:12:34;;;;;;;12.30;7.07;;;486.60;921.60;;;;;;5071256;28;20048;-65
2021/04/24 12:15:06;;;;;;;9.07;6.32;;;486.60;742.40;;;;;;5071544;28;20101;-67